sensor_id;sensor_type;location;lat;lon;timestamp;P1;durP1;ratioP1;P2;durP2;ratioP2
47167;SDS011;32931;47.778;17.806;2023-08-06T00:00:47;8.98;;;2.65;;
47167;SDS011;32931;47.778;17.806;2023-08-06T00:03:13;8.48;;;3.10;;
47167;SDS011;32931;47.778;17.806;2023-08-06T00:05:41;10.63;;;2.78;;
47167;SDS011;32931;47.778;17.806;2023-08-06T00:08:08;6.60;;;2.70;;
47167;SDS011;32931;47.778;17.806;2023-08-06T00:10:34;14.70;;;3.00;;
47167;SDS011;32931;47.778;17.806;2023-08-06T00:13:00;9.10;;;2.88;;
47167;SDS011;32931;47.778;17.806;2023-08-06T00:15:26;15.25;;;2.80;;
47167;SDS011;32931;47.778;17.806;2023-08-06T00:17:52;6.95;;;2.60;;
47167;SDS011;32931;47.778;17.806;2023-08-06T00:20:19;6.63;;;2.30;;
47167;SDS011;32931;47.778;17.806;2023-08-06T00:22:45;5.32;;;2.40;;
47167;SDS011;32931;47.778;17.806;2023-08-06T00:25:12;5.55;;;2.53;;
47167;SDS011;32931;47.778;17.806;2023-08-06T00:27:38;6.65;;;2.50;;
47167;SDS011;32931;47.778;17.806;2023-08-06T00:30:04;7.53;;;2.72;;
47167;SDS011;32931;47.778;17.806;2023-08-06T00:32:30;9.80;;;2.75;;
47167;SDS011;32931;47.778;17.806;2023-08-06T00:34:56;9.00;;;3.15;;
47167;SDS011;32931;47.778;17.806;2023-08-06T00:37:23;8.63;;;2.92;;
47167;SDS011;32931;47.778;17.806;2023-08-06T00:39:49;8.52;;;2.40;;
47167;SDS011;32931;47.778;17.806;2023-08-06T00:42:15;6.43;;;2.28;;
47167;SDS011;32931;47.778;17.806;2023-08-06T00:44:46;7.50;;;2.70;;
47167;SDS011;32931;47.778;17.806;2023-08-06T00:47:12;4.78;;;2.47;;
47167;SDS011;32931;47.778;17.806;2023-08-06T00:49:39;6.68;;;2.50;;
47167;SDS011;32931;47.778;17.806;2023-08-06T00:52:05;7.03;;;2.60;;
47167;SDS011;32931;47.778;17.806;2023-08-06T00:54:33;6.80;;;2.45;;
47167;SDS011;32931;47.778;17.806;2023-08-06T00:57:00;10.13;;;2.75;;
47167;SDS011;32931;47.778;17.806;2023-08-06T00:59:28;3.30;;;2.28;;
47167;SDS011;32931;47.778;17.806;2023-08-06T01:01:55;7.75;;;2.88;;
47167;SDS011;32931;47.778;17.806;2023-08-06T01:04:22;8.35;;;2.55;;
47167;SDS011;32931;47.778;17.806;2023-08-06T01:06:52;8.75;;;2.30;;
47167;SDS011;32931;47.778;17.806;2023-08-06T01:17:28;5.40;;;2.30;;
47167;SDS011;32931;47.778;17.806;2023-08-06T01:19:56;4.93;;;2.05;;
47167;SDS011;32931;47.778;17.806;2023-08-06T01:22:22;5.75;;;2.10;;
47167;SDS011;32931;47.778;17.806;2023-08-06T01:24:48;12.85;;;2.20;;
47167;SDS011;32931;47.778;17.806;2023-08-06T01:32:53;5.28;;;1.70;;
47167;SDS011;32931;47.778;17.806;2023-08-06T01:35:23;5.20;;;1.58;;
47167;SDS011;32931;47.778;17.806;2023-08-06T01:37:52;5.20;;;1.75;;
47167;SDS011;32931;47.778;17.806;2023-08-06T01:40:18;6.13;;;2.00;;
47167;SDS011;32931;47.778;17.806;2023-08-06T01:42:44;7.18;;;1.63;;
47167;SDS011;32931;47.778;17.806;2023-08-06T01:45:10;3.80;;;1.55;;
47167;SDS011;32931;47.778;17.806;2023-08-06T01:47:37;4.30;;;1.50;;
47167;SDS011;32931;47.778;17.806;2023-08-06T01:50:03;7.95;;;1.77;;
47167;SDS011;32931;47.778;17.806;2023-08-06T01:52:29;2.92;;;1.50;;
47167;SDS011;32931;47.778;17.806;2023-08-06T01:54:55;2.80;;;1.40;;
47167;SDS011;32931;47.778;17.806;2023-08-06T01:57:22;3.40;;;1.40;;
47167;SDS011;32931;47.778;17.806;2023-08-06T01:59:48;2.58;;;1.20;;
47167;SDS011;32931;47.778;17.806;2023-08-06T02:02:14;4.18;;;1.33;;
47167;SDS011;32931;47.778;17.806;2023-08-06T02:04:40;3.53;;;1.30;;
47167;SDS011;32931;47.778;17.806;2023-08-06T02:07:06;1.30;;;1.20;;
47167;SDS011;32931;47.778;17.806;2023-08-06T02:09:32;4.82;;;1.40;;
47167;SDS011;32931;47.778;17.806;2023-08-06T02:12:00;7.45;;;1.90;;
47167;SDS011;32931;47.778;17.806;2023-08-06T02:14:28;8.90;;;1.00;;
47167;SDS011;32931;47.778;17.806;2023-08-06T02:16:54;3.08;;;1.00;;
47167;SDS011;32931;47.778;17.806;2023-08-06T02:19:20;2.15;;;0.80;;
47167;SDS011;32931;47.778;17.806;2023-08-06T02:21:46;2.15;;;0.80;;
47167;SDS011;32931;47.778;17.806;2023-08-06T02:24:12;2.65;;;0.73;;
47167;SDS011;32931;47.778;17.806;2023-08-06T02:26:38;0.98;;;0.60;;
47167;SDS011;32931;47.778;17.806;2023-08-06T02:29:04;3.22;;;0.60;;
47167;SDS011;32931;47.778;17.806;2023-08-06T02:31:30;2.30;;;0.50;;
47167;SDS011;32931;47.778;17.806;2023-08-06T02:33:57;1.67;;;0.68;;
47167;SDS011;32931;47.778;17.806;2023-08-06T02:36:24;2.85;;;0.57;;
47167;SDS011;32931;47.778;17.806;2023-08-06T02:38:50;0.65;;;0.40;;
47167;SDS011;32931;47.778;17.806;2023-08-06T02:41:16;0.88;;;0.30;;
47167;SDS011;32931;47.778;17.806;2023-08-06T02:43:42;2.05;;;0.40;;
47167;SDS011;32931;47.778;17.806;2023-08-06T02:46:08;1.75;;;0.50;;
47167;SDS011;32931;47.778;17.806;2023-08-06T02:48:34;0.40;;;0.30;;
47167;SDS011;32931;47.778;17.806;2023-08-06T02:51:00;0.38;;;0.32;;
47167;SDS011;32931;47.778;17.806;2023-08-06T02:53:27;2.03;;;0.40;;
47167;SDS011;32931;47.778;17.806;2023-08-06T02:55:53;2.05;;;0.30;;
47167;SDS011;32931;47.778;17.806;2023-08-06T02:58:20;3.03;;;0.50;;
47167;SDS011;32931;47.778;17.806;2023-08-06T03:00:58;4.53;;;0.50;;
47167;SDS011;32931;47.778;17.806;2023-08-06T03:03:30;0.90;;;0.40;;
47167;SDS011;32931;47.778;17.806;2023-08-06T03:05:56;0.85;;;0.40;;
47167;SDS011;32931;47.778;17.806;2023-08-06T03:08:23;1.55;;;0.50;;
47167;SDS011;32931;47.778;17.806;2023-08-06T03:10:49;0.50;;;0.40;;
47167;SDS011;32931;47.778;17.806;2023-08-06T03:13:16;0.32;;;0.30;;
47167;SDS011;32931;47.778;17.806;2023-08-06T03:15:43;0.35;;;0.30;;
47167;SDS011;32931;47.778;17.806;2023-08-06T03:18:16;2.17;;;0.30;;
47167;SDS011;32931;47.778;17.806;2023-08-06T03:20:42;0.73;;;0.30;;
47167;SDS011;32931;47.778;17.806;2023-08-06T03:23:10;0.75;;;0.20;;
47167;SDS011;32931;47.778;17.806;2023-08-06T03:25:36;3.20;;;0.32;;
47167;SDS011;32931;47.778;17.806;2023-08-06T03:28:02;2.67;;;0.40;;
47167;SDS011;32931;47.778;17.806;2023-08-06T03:30:28;0.40;;;0.20;;
47167;SDS011;32931;47.778;17.806;2023-08-06T03:32:54;0.43;;;0.22;;
47167;SDS011;32931;47.778;17.806;2023-08-06T03:35:20;0.70;;;0.20;;
47167;SDS011;32931;47.778;17.806;2023-08-06T03:37:47;0.10;;;0.10;;
47167;SDS011;32931;47.778;17.806;2023-08-06T03:40:15;0.52;;;0.10;;
47167;SDS011;32931;47.778;17.806;2023-08-06T03:42:41;0.43;;;0.20;;
47167;SDS011;32931;47.778;17.806;2023-08-06T03:45:07;1.67;;;0.40;;
47167;SDS011;32931;47.778;17.806;2023-08-06T03:47:34;4.15;;;0.30;;
47167;SDS011;32931;47.778;17.806;2023-08-06T03:50:00;1.10;;;0.10;;
47167;SDS011;32931;47.778;17.806;2023-08-06T03:52:27;4.68;;;0.30;;
47167;SDS011;32931;47.778;17.806;2023-08-06T03:54:53;1.73;;;0.25;;
47167;SDS011;32931;47.778;17.806;2023-08-06T03:57:19;2.92;;;0.30;;
47167;SDS011;32931;47.778;17.806;2023-08-06T03:59:45;0.13;;;0.13;;
47167;SDS011;32931;47.778;17.806;2023-08-06T04:02:11;1.00;;;0.20;;
47167;SDS011;32931;47.778;17.806;2023-08-06T04:04:37;1.20;;;0.20;;
47167;SDS011;32931;47.778;17.806;2023-08-06T04:07:03;1.80;;;0.25;;
47167;SDS011;32931;47.778;17.806;2023-08-06T04:09:30;1.15;;;0.20;;
47167;SDS011;32931;47.778;17.806;2023-08-06T04:11:56;2.20;;;0.20;;
47167;SDS011;32931;47.778;17.806;2023-08-06T04:14:25;1.33;;;0.30;;
47167;SDS011;32931;47.778;17.806;2023-08-06T04:16:52;1.67;;;0.32;;
47167;SDS011;32931;47.778;17.806;2023-08-06T04:19:18;1.35;;;0.22;;
47167;SDS011;32931;47.778;17.806;2023-08-06T04:21:44;0.17;;;0.10;;
47167;SDS011;32931;47.778;17.806;2023-08-06T04:24:10;0.85;;;0.20;;
47167;SDS011;32931;47.778;17.806;2023-08-06T04:26:36;2.72;;;0.30;;
47167;SDS011;32931;47.778;17.806;2023-08-06T04:29:02;0.35;;;0.17;;
47167;SDS011;32931;47.778;17.806;2023-08-06T04:31:29;0.20;;;0.10;;
47167;SDS011;32931;47.778;17.806;2023-08-06T04:33:55;1.33;;;0.20;;
47167;SDS011;32931;47.778;17.806;2023-08-06T04:36:21;4.10;;;0.10;;
47167;SDS011;32931;47.778;17.806;2023-08-06T04:38:47;3.60;;;0.20;;
47167;SDS011;32931;47.778;17.806;2023-08-06T04:41:14;3.83;;;0.32;;
47167;SDS011;32931;47.778;17.806;2023-08-06T04:43:40;1.08;;;0.20;;
47167;SDS011;32931;47.778;17.806;2023-08-06T04:46:06;0.93;;;0.28;;
47167;SDS011;32931;47.778;17.806;2023-08-06T04:48:32;1.45;;;0.30;;
47167;SDS011;32931;47.778;17.806;2023-08-06T04:50:58;1.10;;;0.30;;
47167;SDS011;32931;47.778;17.806;2023-08-06T04:53:25;2.22;;;0.40;;
47167;SDS011;32931;47.778;17.806;2023-08-06T04:55:51;1.15;;;0.47;;
47167;SDS011;32931;47.778;17.806;2023-08-06T04:58:17;5.78;;;0.40;;
47167;SDS011;32931;47.778;17.806;2023-08-06T05:00:44;4.57;;;0.30;;
47167;SDS011;32931;47.778;17.806;2023-08-06T05:03:10;2.00;;;0.43;;
47167;SDS011;32931;47.778;17.806;2023-08-06T05:05:36;4.50;;;0.65;;
47167;SDS011;32931;47.778;17.806;2023-08-06T05:08:02;1.42;;;0.40;;
47167;SDS011;32931;47.778;17.806;2023-08-06T05:10:28;3.28;;;0.40;;
47167;SDS011;32931;47.778;17.806;2023-08-06T05:12:54;4.78;;;0.38;;
47167;SDS011;32931;47.778;17.806;2023-08-06T05:15:21;5.53;;;0.40;;
47167;SDS011;32931;47.778;17.806;2023-08-06T05:17:47;4.15;;;0.40;;
47167;SDS011;32931;47.778;17.806;2023-08-06T05:20:13;2.35;;;0.25;;
47167;SDS011;32931;47.778;17.806;2023-08-06T05:22:40;1.17;;;0.20;;
47167;SDS011;32931;47.778;17.806;2023-08-06T05:25:06;3.45;;;0.50;;
47167;SDS011;32931;47.778;17.806;2023-08-06T05:27:32;1.88;;;0.38;;
47167;SDS011;32931;47.778;17.806;2023-08-06T05:29:58;0.30;;;0.30;;
47167;SDS011;32931;47.778;17.806;2023-08-06T05:32:24;9.30;;;0.50;;
47167;SDS011;32931;47.778;17.806;2023-08-06T05:34:51;1.30;;;0.40;;
47167;SDS011;32931;47.778;17.806;2023-08-06T05:37:17;3.08;;;0.60;;
47167;SDS011;32931;47.778;17.806;2023-08-06T05:39:43;5.13;;;0.57;;
47167;SDS011;32931;47.778;17.806;2023-08-06T05:42:09;0.63;;;0.43;;
47167;SDS011;32931;47.778;17.806;2023-08-06T05:44:35;1.30;;;0.50;;
47167;SDS011;32931;47.778;17.806;2023-08-06T05:47:01;2.35;;;0.60;;
47167;SDS011;32931;47.778;17.806;2023-08-06T05:49:28;3.92;;;0.60;;
47167;SDS011;32931;47.778;17.806;2023-08-06T05:51:54;4.15;;;0.60;;
47167;SDS011;32931;47.778;17.806;2023-08-06T05:54:20;0.60;;;0.60;;
47167;SDS011;32931;47.778;17.806;2023-08-06T05:56:46;1.13;;;0.80;;
47167;SDS011;32931;47.778;17.806;2023-08-06T05:59:12;3.58;;;0.73;;
47167;SDS011;32931;47.778;17.806;2023-08-06T06:01:38;1.30;;;0.75;;
47167;SDS011;32931;47.778;17.806;2023-08-06T06:04:04;1.70;;;0.80;;
47167;SDS011;32931;47.778;17.806;2023-08-06T06:06:30;1.38;;;0.80;;
47167;SDS011;32931;47.778;17.806;2023-08-06T06:08:57;2.30;;;0.85;;
47167;SDS011;32931;47.778;17.806;2023-08-06T06:11:23;3.83;;;1.00;;
47167;SDS011;32931;47.778;17.806;2023-08-06T06:13:50;2.13;;;0.90;;
47167;SDS011;32931;47.778;17.806;2023-08-06T06:16:17;2.00;;;0.90;;
47167;SDS011;32931;47.778;17.806;2023-08-06T06:18:43;2.15;;;1.17;;
47167;SDS011;32931;47.778;17.806;2023-08-06T06:21:10;1.33;;;0.93;;
47167;SDS011;32931;47.778;17.806;2023-08-06T06:23:36;3.58;;;1.00;;
47167;SDS011;32931;47.778;17.806;2023-08-06T06:26:02;1.75;;;1.00;;
47167;SDS011;32931;47.778;17.806;2023-08-06T06:28:28;2.95;;;1.00;;
47167;SDS011;32931;47.778;17.806;2023-08-06T06:30:59;1.38;;;1.10;;
47167;SDS011;32931;47.778;17.806;2023-08-06T06:33:26;1.98;;;1.20;;
47167;SDS011;32931;47.778;17.806;2023-08-06T06:35:52;2.03;;;1.13;;
47167;SDS011;32931;47.778;17.806;2023-08-06T06:38:18;1.73;;;1.10;;
47167;SDS011;32931;47.778;17.806;2023-08-06T06:40:53;1.20;;;1.08;;
47167;SDS011;32931;47.778;17.806;2023-08-06T06:43:19;2.72;;;1.10;;
47167;SDS011;32931;47.778;17.806;2023-08-06T06:45:45;2.25;;;1.45;;
47167;SDS011;32931;47.778;17.806;2023-08-06T06:48:11;1.88;;;1.10;;
47167;SDS011;32931;47.778;17.806;2023-08-06T06:50:38;1.70;;;1.20;;
47167;SDS011;32931;47.778;17.806;2023-08-06T06:53:04;1.88;;;1.30;;
47167;SDS011;32931;47.778;17.806;2023-08-06T06:55:31;1.48;;;1.15;;
47167;SDS011;32931;47.778;17.806;2023-08-06T06:57:57;4.60;;;1.38;;
47167;SDS011;32931;47.778;17.806;2023-08-06T07:00:24;1.80;;;1.17;;
47167;SDS011;32931;47.778;17.806;2023-08-06T07:02:50;1.42;;;1.10;;
47167;SDS011;32931;47.778;17.806;2023-08-06T07:05:16;9.27;;;1.50;;
47167;SDS011;32931;47.778;17.806;2023-08-06T07:07:42;2.13;;;1.10;;
47167;SDS011;32931;47.778;17.806;2023-08-06T07:10:08;4.25;;;1.35;;
47167;SDS011;32931;47.778;17.806;2023-08-06T07:12:34;3.22;;;1.15;;
47167;SDS011;32931;47.778;17.806;2023-08-06T07:15:04;2.60;;;1.20;;
47167;SDS011;32931;47.778;17.806;2023-08-06T07:17:31;2.92;;;1.00;;
47167;SDS011;32931;47.778;17.806;2023-08-06T07:19:58;1.30;;;0.90;;
47167;SDS011;32931;47.778;17.806;2023-08-06T07:22:24;3.15;;;1.05;;
47167;SDS011;32931;47.778;17.806;2023-08-06T07:24:50;1.58;;;1.10;;
47167;SDS011;32931;47.778;17.806;2023-08-06T07:27:16;2.13;;;0.90;;
47167;SDS011;32931;47.778;17.806;2023-08-06T07:29:42;2.05;;;1.15;;
47167;SDS011;32931;47.778;17.806;2023-08-06T07:32:08;1.30;;;1.00;;
47167;SDS011;32931;47.778;17.806;2023-08-06T07:34:34;2.13;;;0.90;;
47167;SDS011;32931;47.778;17.806;2023-08-06T07:37:00;2.10;;;0.90;;
47167;SDS011;32931;47.778;17.806;2023-08-06T07:39:27;5.88;;;1.50;;
47167;SDS011;32931;47.778;17.806;2023-08-06T07:41:54;1.70;;;1.30;;
47167;SDS011;32931;47.778;17.806;2023-08-06T07:44:20;3.55;;;1.45;;
47167;SDS011;32931;47.778;17.806;2023-08-06T07:46:46;1.25;;;0.98;;
47167;SDS011;32931;47.778;17.806;2023-08-06T07:49:12;2.13;;;1.20;;
47167;SDS011;32931;47.778;17.806;2023-08-06T07:51:38;2.30;;;1.02;;
47167;SDS011;32931;47.778;17.806;2023-08-06T07:54:05;1.42;;;0.90;;
47167;SDS011;32931;47.778;17.806;2023-08-06T07:56:32;1.67;;;1.20;;
47167;SDS011;32931;47.778;17.806;2023-08-06T07:58:58;4.22;;;1.17;;
47167;SDS011;32931;47.778;17.806;2023-08-06T08:01:24;4.82;;;1.00;;
47167;SDS011;32931;47.778;17.806;2023-08-06T08:03:50;1.23;;;1.10;;
47167;SDS011;32931;47.778;17.806;2023-08-06T08:06:16;3.90;;;1.25;;
47167;SDS011;32931;47.778;17.806;2023-08-06T08:08:43;1.75;;;1.00;;
47167;SDS011;32931;47.778;17.806;2023-08-06T08:11:09;1.85;;;1.15;;
47167;SDS011;32931;47.778;17.806;2023-08-06T08:13:35;2.95;;;1.40;;
47167;SDS011;32931;47.778;17.806;2023-08-06T08:16:01;2.40;;;1.00;;
47167;SDS011;32931;47.778;17.806;2023-08-06T08:18:27;1.75;;;0.90;;
47167;SDS011;32931;47.778;17.806;2023-08-06T08:20:54;2.78;;;1.30;;
47167;SDS011;32931;47.778;17.806;2023-08-06T08:23:20;2.47;;;1.10;;
47167;SDS011;32931;47.778;17.806;2023-08-06T08:25:46;4.32;;;1.30;;
47167;SDS011;32931;47.778;17.806;2023-08-06T08:28:12;1.88;;;1.10;;
47167;SDS011;32931;47.778;17.806;2023-08-06T08:30:40;1.15;;;1.05;;
47167;SDS011;32931;47.778;17.806;2023-08-06T08:33:06;2.13;;;1.40;;
47167;SDS011;32931;47.778;17.806;2023-08-06T08:35:33;3.20;;;1.23;;
47167;SDS011;32931;47.778;17.806;2023-08-06T08:37:59;1.52;;;1.15;;
47167;SDS011;32931;47.778;17.806;2023-08-06T08:40:32;1.98;;;1.30;;
47167;SDS011;32931;47.778;17.806;2023-08-06T08:42:58;2.72;;;1.05;;
47167;SDS011;32931;47.778;17.806;2023-08-06T08:45:28;2.83;;;1.10;;
47167;SDS011;32931;47.778;17.806;2023-08-06T08:47:55;2.28;;;1.08;;
47167;SDS011;32931;47.778;17.806;2023-08-06T08:50:21;1.85;;;1.30;;
47167;SDS011;32931;47.778;17.806;2023-08-06T08:52:47;1.95;;;1.17;;
47167;SDS011;32931;47.778;17.806;2023-08-06T08:55:16;4.40;;;1.00;;
47167;SDS011;32931;47.778;17.806;2023-08-06T08:57:43;4.38;;;1.13;;
47167;SDS011;32931;47.778;17.806;2023-08-06T09:00:09;3.00;;;1.15;;
47167;SDS011;32931;47.778;17.806;2023-08-06T09:02:35;2.15;;;1.17;;
47167;SDS011;32931;47.778;17.806;2023-08-06T09:05:03;1.10;;;0.90;;
47167;SDS011;32931;47.778;17.806;2023-08-06T09:07:42;1.38;;;1.00;;
47167;SDS011;32931;47.778;17.806;2023-08-06T09:10:11;2.17;;;1.20;;
47167;SDS011;32931;47.778;17.806;2023-08-06T09:12:39;1.50;;;1.20;;
47167;SDS011;32931;47.778;17.806;2023-08-06T09:15:06;2.65;;;1.30;;
47167;SDS011;32931;47.778;17.806;2023-08-06T09:17:32;3.30;;;1.00;;
47167;SDS011;32931;47.778;17.806;2023-08-06T09:19:58;1.90;;;1.10;;
47167;SDS011;32931;47.778;17.806;2023-08-06T09:22:24;3.58;;;1.30;;
47167;SDS011;32931;47.778;17.806;2023-08-06T09:24:58;3.35;;;1.67;;
47167;SDS011;32931;47.778;17.806;2023-08-06T09:27:24;4.65;;;1.60;;
47167;SDS011;32931;47.778;17.806;2023-08-06T09:29:51;1.92;;;1.20;;
47167;SDS011;32931;47.778;17.806;2023-08-06T09:32:17;3.95;;;1.42;;
47167;SDS011;32931;47.778;17.806;2023-08-06T09:34:43;1.73;;;1.40;;
47167;SDS011;32931;47.778;17.806;2023-08-06T09:37:09;1.65;;;1.20;;
47167;SDS011;32931;47.778;17.806;2023-08-06T09:39:38;2.65;;;1.67;;
47167;SDS011;32931;47.778;17.806;2023-08-06T09:42:06;2.30;;;1.50;;
47167;SDS011;32931;47.778;17.806;2023-08-06T09:44:33;4.75;;;1.20;;
47167;SDS011;32931;47.778;17.806;2023-08-06T09:47:00;3.08;;;1.30;;
47167;SDS011;32931;47.778;17.806;2023-08-06T09:49:39;2.03;;;1.30;;
47167;SDS011;32931;47.778;17.806;2023-08-06T09:52:14;2.90;;;1.67;;
47167;SDS011;32931;47.778;17.806;2023-08-06T09:54:42;2.00;;;1.60;;
47167;SDS011;32931;47.778;17.806;2023-08-06T09:57:09;1.98;;;1.50;;
47167;SDS011;32931;47.778;17.806;2023-08-06T09:59:37;3.17;;;1.35;;
47167;SDS011;32931;47.778;17.806;2023-08-06T10:02:09;1.90;;;1.45;;
47167;SDS011;32931;47.778;17.806;2023-08-06T10:04:38;4.93;;;1.67;;
47167;SDS011;32931;47.778;17.806;2023-08-06T10:07:06;1.83;;;1.58;;
47167;SDS011;32931;47.778;17.806;2023-08-06T10:09:32;3.92;;;1.85;;
47167;SDS011;32931;47.778;17.806;2023-08-06T10:11:58;2.15;;;1.70;;
47167;SDS011;32931;47.778;17.806;2023-08-06T10:14:30;3.95;;;1.88;;
47167;SDS011;32931;47.778;17.806;2023-08-06T10:16:59;2.38;;;1.48;;
47167;SDS011;32931;47.778;17.806;2023-08-06T10:19:26;2.92;;;1.90;;
47167;SDS011;32931;47.778;17.806;2023-08-06T10:24:51;2.88;;;1.58;;
47167;SDS011;32931;47.778;17.806;2023-08-06T10:29:47;1.60;;;1.40;;
47167;SDS011;32931;47.778;17.806;2023-08-06T10:32:17;3.47;;;1.60;;
47167;SDS011;32931;47.778;17.806;2023-08-06T10:34:53;2.83;;;1.55;;
47167;SDS011;32931;47.778;17.806;2023-08-06T10:37:20;2.28;;;1.70;;
47167;SDS011;32931;47.778;17.806;2023-08-06T10:39:50;5.28;;;1.60;;
47167;SDS011;32931;47.778;17.806;2023-08-06T10:42:26;2.92;;;1.65;;
47167;SDS011;32931;47.778;17.806;2023-08-06T10:47:40;2.35;;;1.58;;
47167;SDS011;32931;47.778;17.806;2023-08-06T10:50:07;1.83;;;1.50;;
47167;SDS011;32931;47.778;17.806;2023-08-06T10:52:36;2.67;;;1.73;;
47167;SDS011;32931;47.778;17.806;2023-08-06T10:55:03;2.35;;;1.85;;
47167;SDS011;32931;47.778;17.806;2023-08-06T10:57:30;1.85;;;1.33;;
47167;SDS011;32931;47.778;17.806;2023-08-06T10:59:56;2.22;;;1.40;;
47167;SDS011;32931;47.778;17.806;2023-08-06T11:02:22;1.90;;;1.40;;
47167;SDS011;32931;47.778;17.806;2023-08-06T11:04:48;3.90;;;1.30;;
47167;SDS011;32931;47.778;17.806;2023-08-06T11:07:14;9.00;;;1.20;;
47167;SDS011;32931;47.778;17.806;2023-08-06T11:09:40;5.93;;;1.77;;
47167;SDS011;32931;47.778;17.806;2023-08-06T11:12:09;4.25;;;1.20;;
47167;SDS011;32931;47.778;17.806;2023-08-06T11:14:36;1.80;;;1.30;;
47167;SDS011;32931;47.778;17.806;2023-08-06T11:17:02;2.55;;;1.52;;
47167;SDS011;32931;47.778;17.806;2023-08-06T11:19:28;2.42;;;1.30;;
47167;SDS011;32931;47.778;17.806;2023-08-06T11:21:54;3.85;;;1.30;;
47167;SDS011;32931;47.778;17.806;2023-08-06T11:24:23;5.43;;;1.42;;
47167;SDS011;32931;47.778;17.806;2023-08-06T11:26:49;3.17;;;1.45;;
47167;SDS011;32931;47.778;17.806;2023-08-06T11:29:16;3.25;;;1.58;;
47167;SDS011;32931;47.778;17.806;2023-08-06T11:31:42;1.90;;;1.30;;
47167;SDS011;32931;47.778;17.806;2023-08-06T11:34:08;3.03;;;1.50;;
47167;SDS011;32931;47.778;17.806;2023-08-06T11:36:36;2.80;;;1.40;;
47167;SDS011;32931;47.778;17.806;2023-08-06T11:39:06;1.40;;;1.20;;
47167;SDS011;32931;47.778;17.806;2023-08-06T11:41:32;2.28;;;1.42;;
47167;SDS011;32931;47.778;17.806;2023-08-06T11:43:59;3.58;;;1.38;;
47167;SDS011;32931;47.778;17.806;2023-08-06T11:46:25;3.03;;;1.55;;
47167;SDS011;32931;47.778;17.806;2023-08-06T11:48:58;2.78;;;1.30;;
47167;SDS011;32931;47.778;17.806;2023-08-06T11:51:25;2.58;;;1.25;;
47167;SDS011;32931;47.778;17.806;2023-08-06T11:53:58;2.33;;;1.40;;
47167;SDS011;32931;47.778;17.806;2023-08-06T11:56:24;2.75;;;1.20;;
47167;SDS011;32931;47.778;17.806;2023-08-06T11:58:51;1.63;;;1.23;;
47167;SDS011;32931;47.778;17.806;2023-08-06T12:01:18;1.85;;;1.20;;
47167;SDS011;32931;47.778;17.806;2023-08-06T12:03:44;1.55;;;1.23;;
47167;SDS011;32931;47.778;17.806;2023-08-06T12:06:10;2.13;;;1.40;;
47167;SDS011;32931;47.778;17.806;2023-08-06T12:08:36;2.53;;;1.55;;
47167;SDS011;32931;47.778;17.806;2023-08-06T12:11:03;2.55;;;1.55;;
47167;SDS011;32931;47.778;17.806;2023-08-06T12:13:30;4.03;;;1.50;;
47167;SDS011;32931;47.778;17.806;2023-08-06T12:15:56;2.08;;;1.15;;
47167;SDS011;32931;47.778;17.806;2023-08-06T12:18:23;1.30;;;1.20;;
47167;SDS011;32931;47.778;17.806;2023-08-06T12:20:49;4.47;;;1.30;;
47167;SDS011;32931;47.778;17.806;2023-08-06T12:23:15;1.40;;;1.13;;
47167;SDS011;32931;47.778;17.806;2023-08-06T12:25:42;2.33;;;1.30;;
47167;SDS011;32931;47.778;17.806;2023-08-06T12:28:10;3.15;;;1.10;;
47167;SDS011;32931;47.778;17.806;2023-08-06T12:30:37;3.90;;;1.50;;
47167;SDS011;32931;47.778;17.806;2023-08-06T12:33:06;1.45;;;1.20;;
47167;SDS011;32931;47.778;17.806;2023-08-06T12:35:33;3.08;;;1.27;;
47167;SDS011;32931;47.778;17.806;2023-08-06T12:37:59;3.50;;;1.27;;
47167;SDS011;32931;47.778;17.806;2023-08-06T12:40:25;2.67;;;0.98;;
47167;SDS011;32931;47.778;17.806;2023-08-06T12:42:52;4.70;;;1.27;;
47167;SDS011;32931;47.778;17.806;2023-08-06T12:45:19;3.58;;;1.00;;
47167;SDS011;32931;47.778;17.806;2023-08-06T12:47:46;3.83;;;1.17;;
47167;SDS011;32931;47.778;17.806;2023-08-06T12:50:13;5.57;;;1.10;;
47167;SDS011;32931;47.778;17.806;2023-08-06T12:52:39;1.23;;;0.90;;
47167;SDS011;32931;47.778;17.806;2023-08-06T12:55:05;4.50;;;1.23;;
47167;SDS011;32931;47.778;17.806;2023-08-06T12:57:31;2.08;;;1.30;;
47167;SDS011;32931;47.778;17.806;2023-08-06T12:59:59;3.58;;;1.23;;
47167;SDS011;32931;47.778;17.806;2023-08-06T13:02:25;1.85;;;1.15;;
47167;SDS011;32931;47.778;17.806;2023-08-06T13:04:55;2.28;;;1.13;;
47167;SDS011;32931;47.778;17.806;2023-08-06T13:07:21;1.27;;;0.98;;
47167;SDS011;32931;47.778;17.806;2023-08-06T13:09:47;3.22;;;1.13;;
47167;SDS011;32931;47.778;17.806;2023-08-06T13:12:13;5.55;;;1.10;;
47167;SDS011;32931;47.778;17.806;2023-08-06T13:14:39;1.33;;;1.10;;
47167;SDS011;32931;47.778;17.806;2023-08-06T13:17:05;1.98;;;1.27;;
47167;SDS011;32931;47.778;17.806;2023-08-06T13:19:33;1.73;;;1.17;;
47167;SDS011;32931;47.778;17.806;2023-08-06T13:22:00;4.63;;;1.20;;
47167;SDS011;32931;47.778;17.806;2023-08-06T13:24:28;3.65;;;1.27;;
47167;SDS011;32931;47.778;17.806;2023-08-06T13:26:54;2.53;;;1.08;;
47167;SDS011;32931;47.778;17.806;2023-08-06T13:29:20;2.28;;;1.10;;
47167;SDS011;32931;47.778;17.806;2023-08-06T13:31:46;5.10;;;1.20;;
47167;SDS011;32931;47.778;17.806;2023-08-06T13:34:12;2.50;;;1.10;;
47167;SDS011;32931;47.778;17.806;2023-08-06T13:36:38;3.10;;;1.30;;
47167;SDS011;32931;47.778;17.806;2023-08-06T13:39:05;2.00;;;1.15;;
47167;SDS011;32931;47.778;17.806;2023-08-06T13:41:31;4.10;;;1.13;;
47167;SDS011;32931;47.778;17.806;2023-08-06T13:43:57;2.35;;;1.25;;
47167;SDS011;32931;47.778;17.806;2023-08-06T13:46:23;2.08;;;1.30;;
47167;SDS011;32931;47.778;17.806;2023-08-06T13:48:49;2.53;;;1.20;;
47167;SDS011;32931;47.778;17.806;2023-08-06T13:51:19;3.53;;;1.17;;
47167;SDS011;32931;47.778;17.806;2023-08-06T13:53:45;5.82;;;1.33;;
47167;SDS011;32931;47.778;17.806;2023-08-06T13:56:11;1.48;;;1.05;;
47167;SDS011;32931;47.778;17.806;2023-08-06T13:58:37;3.10;;;1.40;;
47167;SDS011;32931;47.778;17.806;2023-08-06T14:01:04;1.92;;;1.42;;
47167;SDS011;32931;47.778;17.806;2023-08-06T14:03:30;4.82;;;1.40;;
47167;SDS011;32931;47.778;17.806;2023-08-06T14:05:56;2.88;;;1.50;;
47167;SDS011;32931;47.778;17.806;2023-08-06T14:08:23;1.92;;;1.40;;
47167;SDS011;32931;47.778;17.806;2023-08-06T14:10:50;3.42;;;1.58;;
47167;SDS011;32931;47.778;17.806;2023-08-06T14:13:17;2.50;;;1.35;;
47167;SDS011;32931;47.778;17.806;2023-08-06T14:15:43;2.50;;;1.23;;
47167;SDS011;32931;47.778;17.806;2023-08-06T14:18:16;1.40;;;1.30;;
47167;SDS011;32931;47.778;17.806;2023-08-06T14:20:42;2.65;;;1.45;;
47167;SDS011;32931;47.778;17.806;2023-08-06T14:23:09;3.70;;;1.48;;
47167;SDS011;32931;47.778;17.806;2023-08-06T14:25:36;2.55;;;1.75;;
47167;SDS011;32931;47.778;17.806;2023-08-06T14:28:03;3.92;;;1.73;;
47167;SDS011;32931;47.778;17.806;2023-08-06T14:30:30;3.92;;;1.95;;
47167;SDS011;32931;47.778;17.806;2023-08-06T14:32:57;1.75;;;1.60;;
47167;SDS011;32931;47.778;17.806;2023-08-06T14:35:26;4.15;;;1.70;;
47167;SDS011;32931;47.778;17.806;2023-08-06T14:37:52;2.50;;;1.88;;
47167;SDS011;32931;47.778;17.806;2023-08-06T14:40:18;2.40;;;1.42;;
47167;SDS011;32931;47.778;17.806;2023-08-06T14:42:44;3.65;;;1.67;;
47167;SDS011;32931;47.778;17.806;2023-08-06T14:45:10;2.55;;;1.85;;
47167;SDS011;32931;47.778;17.806;2023-08-06T14:47:36;2.75;;;1.42;;
47167;SDS011;32931;47.778;17.806;2023-08-06T14:50:02;4.15;;;1.50;;
47167;SDS011;32931;47.778;17.806;2023-08-06T14:52:29;3.45;;;1.50;;